Historyczne dane pomiarowe

Dodano dane terminowe – wersja testowa.

Dane z okresu 1951-2019

Wersja bazy: 1.34 [2019-03-16, lista zmian], aktualizacja planowana na 2019-04-15

Dane meteo z obszaru Polski uzyskane na podstawie danych udostępnionych przez Instytut Meteorologii i Gospodarki Wodnej – Państwowy Instytut Badawczy.

 

Wybierz Datę:    

       

TemperaturaWilgotnośćWiatrCiśnienieOpadyŚniegCzas trwania zjawisk
 Stacja t tx tn tng RH VA  wxwx mslp ppp RRR   cm mm wxwxwxwxwxwxwx
2019-06-29 22.4 30.4 11.8 8.6 47.5- 1.0----- 0.0------------
2019-06-28 18.7 25.2 10.7 7.9 65.3- 6.0----- 0.0------------
2019-06-27 23.3 33.9 18.1 17.4 53.3- 2.3----- 0.0------------
2019-06-26 29.2 38.0 18.1 15.8 52.5- 2.3----- 0.0------------
2019-06-25 25.0 33.3 13.7 10.8 51.5- 2.3----- 0.0------------
2019-06-24 21.0 29.2 10.1 6.9 55.8- 1.0----- 0.0------------
2019-06-23 20.0 26.0 13.1 10.1 52.8- 2.3----- 0.0------------
2019-06-22 19.8 26.0 12.9 10.4 56.5- 2.0----- 0.0------------
2019-06-21 20.5 26.1 16.1 14.0 85.3- 6.3----- 1.3------------
2019-06-20 23.6 33.0 16.1 14.3 64.5- 4.3----- 3.3------------
2019-06-19 23.4 31.6 14.4 11.7 61.8- 3.7----- 0.0------------
2019-06-18 21.0 28.3 11.5 9.1 54.5- 3.0----- 0.0------------
2019-06-17 20.0 27.1 10.0 7.9 54.5- 1.7----- 0.0------------
2019-06-16 22.9 27.5 19.8 18.6 58.0- 2.7----- 0.0------------
2019-06-15 25.9 35.0 18.6 16.2 66.5- 6.0----- 1.0------------
2019-06-14 22.6 28.7 17.0 14.5 71.5- 4.3----- 0.0------------
2019-06-13 22.8 29.5 18.6 18.4 81.5- 6.7----- 0.0------------
2019-06-12 26.8 34.0 18.4 15.8 56.3- 2.0----- 0.0------------
2019-06-11 27.2 34.8 18.7 16.3 56.8- 1.0----- 0.0------------
2019-06-10 24.4 32.0 16.9 14.2 56.0- 5.7----- 0.0------------
2019-06-09 17.9 26.2 7.2 5.3 56.0- 1.7----- 0.0------------
2019-06-08 19.6 23.7 14.0 11.8 65.5- 3.0----- 0.0------------
2019-06-07 21.3 26.2 17.2 16.3 76.8- 4.7----- 0.0------------
2019-06-06 23.5 29.7 17.0 14.8 59.8- 3.3----- 0.0------------
2019-06-05 23.1 30.1 14.9 12.5 63.8- 2.0----- 0.0------------
2019-06-04 23.3 30.5 13.9 11.3 59.0- 0.7----- 0.0------------
2019-06-03 22.6 29.7 14.1 11.1 63.5- 1.0----- 0.0------------
2019-06-02 21.0 27.2 13.2 11.0 71.0- 2.7----- 0.0------------
2019-06-01 19.6 26.2 13.4 11.6 83.5- 5.3----- 0.0------------
2019-05-31 16.9 23.6 8.2 5.3 65.3- 5.3----- 9.5------------
2019-05-30 12.3 19.2 2.1 0.2 61.0- 1.0----- 0.0------------
2019-05-29 12.1 16.8 7.7 6.5 67.5- 4.3----- 0.0------------
2019-05-28 15.6 20.4 13.0 10.5 95.5- 8.0----- 14.1------------
2019-05-27 18.9 24.8 12.3 8.3 58.8- 6.0----- 3.7------------
2019-05-26 15.3 21.6 8.0 4.5 67.0- 6.0----- 0.0------------
2019-05-25 15.3 20.3 10.5 7.0 66.5- 4.0----- 0.0------------
2019-05-24 14.8 21.1 6.5 4.1 62.8- 4.3----- 0.0------------
2019-05-23 14.0 18.1 11.5 11.6 74.5- 7.0----- 0.0------------
2019-05-22 16.3 19.7 14.5 13.0 86.8- 7.3----- 1.5------------
2019-05-21 17.3 23.7 9.6 7.3 76.3- 5.3----- 4.9------------
2019-05-20 17.6 23.6 11.5 9.1 80.5- 5.3----- 0.0------------
2019-05-19 17.0 25.4 9.5 7.5 73.0- 6.0----- 3.5------------
2019-05-18 17.4 23.6 9.9 7.4 72.8- 3.3----- 0.0------------
2019-05-17 14.3 18.1 10.8 10.1 84.5- 5.0----- 0.0------------
2019-05-16 11.5 14.4 7.9 7.9 94.0- 7.3----- 0.6------------
2019-05-15 8.1 12.4 5.0 4.7 92.3- 7.7----- 7.1------------
2019-05-14 7.3 12.5 1.2 -1.0 69.8- 6.7----- 3.9------------
2019-05-13 9.7 14.3 5.4 3.9 61.3- 5.3----- 0.0------------
2019-05-12 9.2 14.6 6.7 6.4 92.5- 7.7----- 14.3------------
2019-05-11 12.0 17.7 7.2 4.5 79.3- 6.3----- 3.1------------
2019-05-10 10.8 18.5 4.2 3.2 89.3- 7.0----- 2.8------------
2019-05-09 11.5 13.8 9.9 9.4 79.3- 6.3----- 4.2------------
2019-05-08 9.5 17.1 -0.5 -3.5 61.3- 3.7----- 0.0------------
2019-05-07 8.3 13.8 1.1 -1.1 57.5- 6.0----- 0.0------------
2019-05-06 7.9 13.2 1.1 -1.9 57.5- 4.3----- 0.0------------
2019-05-05 7.4 13.2 1.9 0.0 70.0- 4.3----- 0.0------------
2019-05-04 5.8 10.0 3.0 0.6 82.0- 7.7----- 8.5------------
2019-05-03 9.7 13.5 7.2 6.6 47.0- 6.0----- 0.0------------
2019-05-02 10.8 15.8 7.2 5.6 65.5- 5.0----- 0.1------------
2019-05-01 12.4 19.6 5.5 2.4 55.8- 6.3----- 0.5------------
1156.4 ms

 

Źródłem pochodzenia danych jest Instytut Meteorologii i Gospodarki Wodnej – Państwowy Instytut Badawczy. Dane Instytutu Meteorologii i Gospodarki Wodnej – Państwowego Instytutu Badawczego zostały przetworzone.

Dane źródłowe można odnaleźć na stronie https://dane.imgw.pl